sensor_id;sensor_type;location;lat;lon;timestamp;pressure;altitude;pressure_sealevel;temperature;humidity
24486;BME280;13449;49.374;8.584;2023-05-11T00:01:32;100306.59;;;10.28;88.01
24486;BME280;13449;49.374;8.584;2023-05-11T00:03:59;100307.66;;;10.26;88.23
24486;BME280;13449;49.374;8.584;2023-05-11T00:06:28;100310.19;;;10.27;89.11
24486;BME280;13449;49.374;8.584;2023-05-11T00:08:54;100301.53;;;10.25;88.72
24486;BME280;13449;49.374;8.584;2023-05-11T00:11:21;100302.41;;;10.26;88.62
24486;BME280;13449;49.374;8.584;2023-05-11T00:13:48;100307.03;;;10.22;88.66
24486;BME280;13449;49.374;8.584;2023-05-11T00:16:15;100309.88;;;10.19;88.92
24486;BME280;13449;49.374;8.584;2023-05-11T00:18:44;100301.16;;;10.18;88.64
24486;BME280;13449;49.374;8.584;2023-05-11T00:21:10;100307.38;;;10.17;88.76
24486;BME280;13449;49.374;8.584;2023-05-11T00:23:37;100303.06;;;10.16;88.63
24486;BME280;13449;49.374;8.584;2023-05-11T00:26:03;100306.06;;;10.12;88.87
24486;BME280;13449;49.374;8.584;2023-05-11T00:28:30;100300.78;;;10.12;89.01
24486;BME280;13449;49.374;8.584;2023-05-11T00:30:57;100299.13;;;10.11;89.15
24486;BME280;13449;49.374;8.584;2023-05-11T00:33:23;100299.34;;;10.08;88.44
24486;BME280;13449;49.374;8.584;2023-05-11T00:35:50;100295.41;;;10.02;89.31
24486;BME280;13449;49.374;8.584;2023-05-11T00:38:17;100292.88;;;10.01;88.72
24486;BME280;13449;49.374;8.584;2023-05-11T00:40:43;100295.63;;;9.99;89.66
24486;BME280;13449;49.374;8.584;2023-05-11T00:43:10;100296.72;;;9.97;89.89
24486;BME280;13449;49.374;8.584;2023-05-11T00:45:39;100293.56;;;9.91;89.61
24486;BME280;13449;49.374;8.584;2023-05-11T00:48:06;100293.56;;;9.91;89.92
24486;BME280;13449;49.374;8.584;2023-05-11T00:50:34;100299.06;;;9.88;90.23
24486;BME280;13449;49.374;8.584;2023-05-11T00:53:01;100291.53;;;9.84;89.60
24486;BME280;13449;49.374;8.584;2023-05-11T00:55:29;100297.41;;;9.87;89.86
24486;BME280;13449;49.374;8.584;2023-05-11T00:57:56;100289.75;;;9.84;90.00
24486;BME280;13449;49.374;8.584;2023-05-11T01:00:22;100292.00;;;9.78;89.74
24486;BME280;13449;49.374;8.584;2023-05-11T01:02:49;100293.56;;;9.80;89.98
24486;BME280;13449;49.374;8.584;2023-05-11T01:05:16;100290.00;;;9.81;90.41
24486;BME280;13449;49.374;8.584;2023-05-11T01:07:52;100292.84;;;9.78;90.52
24486;BME280;13449;49.374;8.584;2023-05-11T01:10:41;100292.22;;;9.75;90.91
24486;BME280;13449;49.374;8.584;2023-05-11T01:13:32;100301.91;;;9.74;90.38
24486;BME280;13449;49.374;8.584;2023-05-11T01:16:05;100286.53;;;9.81;90.82
24486;BME280;13449;49.374;8.584;2023-05-11T01:18:41;100285.91;;;9.77;90.30
24486;BME280;13449;49.374;8.584;2023-05-11T01:21:14;100282.53;;;9.75;90.02
24486;BME280;13449;49.374;8.584;2023-05-11T01:23:58;100280.88;;;9.74;90.56
24486;BME280;13449;49.374;8.584;2023-05-11T01:26:51;100283.38;;;9.76;90.60
24486;BME280;13449;49.374;8.584;2023-05-11T01:29:40;100284.34;;;9.75;90.34
24486;BME280;13449;49.374;8.584;2023-05-11T01:32:14;100291.16;;;9.77;90.72
24486;BME280;13449;49.374;8.584;2023-05-11T01:34:43;100285.19;;;9.75;90.78
24486;BME280;13449;49.374;8.584;2023-05-11T01:37:18;100280.88;;;9.74;91.10
24486;BME280;13449;49.374;8.584;2023-05-11T01:39:57;100286.13;;;9.74;90.82
24486;BME280;13449;49.374;8.584;2023-05-11T01:42:29;100289.84;;;9.72;90.92
24486;BME280;13449;49.374;8.584;2023-05-11T01:44:58;100288.03;;;9.72;90.95
24486;BME280;13449;49.374;8.584;2023-05-11T01:47:27;100293.53;;;9.69;90.85
24486;BME280;13449;49.374;8.584;2023-05-11T01:49:55;100293.53;;;9.69;90.77
24486;BME280;13449;49.374;8.584;2023-05-11T01:52:26;100289.47;;;9.65;90.90
24486;BME280;13449;49.374;8.584;2023-05-11T01:54:55;100290.06;;;9.69;91.93
24486;BME280;13449;49.374;8.584;2023-05-11T01:57:23;100288.28;;;9.69;91.79
24486;BME280;13449;49.374;8.584;2023-05-11T01:59:51;100287.56;;;9.67;91.13
24486;BME280;13449;49.374;8.584;2023-05-11T02:02:18;100284.22;;;9.65;91.30
24486;BME280;13449;49.374;8.584;2023-05-11T02:04:46;100277.75;;;9.69;91.49
24486;BME280;13449;49.374;8.584;2023-05-11T02:07:18;100286.59;;;9.68;91.55
24486;BME280;13449;49.374;8.584;2023-05-11T02:09:48;100278.25;;;9.63;91.12
24486;BME280;13449;49.374;8.584;2023-05-11T02:12:17;100278.44;;;9.60;91.81
24486;BME280;13449;49.374;8.584;2023-05-11T02:14:45;100280.34;;;9.58;91.25
24486;BME280;13449;49.374;8.584;2023-05-11T02:17:14;100275.94;;;9.58;91.34
24486;BME280;13449;49.374;8.584;2023-05-11T02:19:43;100286.44;;;9.58;91.86
24486;BME280;13449;49.374;8.584;2023-05-11T02:22:11;100287.53;;;9.56;91.71
24486;BME280;13449;49.374;8.584;2023-05-11T02:24:38;100294.47;;;9.57;92.08
24486;BME280;13449;49.374;8.584;2023-05-11T02:27:05;100289.06;;;9.47;91.51
24486;BME280;13449;49.374;8.584;2023-05-11T02:29:32;100285.81;;;9.44;91.19
24486;BME280;13449;49.374;8.584;2023-05-11T02:32:19;100280.34;;;9.47;91.06
24486;BME280;13449;49.374;8.584;2023-05-11T02:34:53;100280.94;;;9.50;91.51
24486;BME280;13449;49.374;8.584;2023-05-11T02:37:24;100290.28;;;9.54;91.87
24486;BME280;13449;49.374;8.584;2023-05-11T02:40:06;100284.41;;;9.51;91.76
24486;BME280;13449;49.374;8.584;2023-05-11T02:42:37;100278.75;;;9.44;91.16
24486;BME280;13449;49.374;8.584;2023-05-11T02:45:08;100281.50;;;9.43;91.51
24486;BME280;13449;49.374;8.584;2023-05-11T02:47:46;100276.00;;;9.46;91.22
24486;BME280;13449;49.374;8.584;2023-05-11T02:50:18;100280.00;;;9.51;91.70
24486;BME280;13449;49.374;8.584;2023-05-11T02:52:47;100284.66;;;9.48;91.96
24486;BME280;13449;49.374;8.584;2023-05-11T02:55:15;100283.56;;;9.50;91.91
24486;BME280;13449;49.374;8.584;2023-05-11T02:57:44;100282.97;;;9.47;92.18
24486;BME280;13449;49.374;8.584;2023-05-11T03:00:13;100290.94;;;9.45;92.01
24486;BME280;13449;49.374;8.584;2023-05-11T03:02:43;100286.53;;;9.46;91.83
24486;BME280;13449;49.374;8.584;2023-05-11T03:05:12;100292.78;;;9.56;92.56
24486;BME280;13449;49.374;8.584;2023-05-11T03:07:39;100299.34;;;9.50;92.50
24486;BME280;13449;49.374;8.584;2023-05-11T03:10:09;100291.13;;;9.55;92.29
24486;BME280;13449;49.374;8.584;2023-05-11T03:12:38;100295.78;;;9.51;92.58
24486;BME280;13449;49.374;8.584;2023-05-11T03:15:05;100289.91;;;9.48;91.77
24486;BME280;13449;49.374;8.584;2023-05-11T03:17:33;100289.91;;;9.48;92.14
24486;BME280;13449;49.374;8.584;2023-05-11T03:20:00;100297.16;;;9.44;92.55
24486;BME280;13449;49.374;8.584;2023-05-11T03:22:29;100291.31;;;9.41;92.21
24486;BME280;13449;49.374;8.584;2023-05-11T03:24:57;100284.47;;;9.38;92.16
24486;BME280;13449;49.374;8.584;2023-05-11T03:27:24;100284.59;;;9.37;92.80
24486;BME280;13449;49.374;8.584;2023-05-11T03:29:51;100282.94;;;9.36;92.33
24486;BME280;13449;49.374;8.584;2023-05-11T03:32:18;100277.16;;;9.30;92.50
24486;BME280;13449;49.374;8.584;2023-05-11T03:34:45;100281.38;;;9.33;92.94
24486;BME280;13449;49.374;8.584;2023-05-11T03:37:12;100282.22;;;9.34;92.85
24486;BME280;13449;49.374;8.584;2023-05-11T03:39:40;100278.94;;;9.30;92.83
24486;BME280;13449;49.374;8.584;2023-05-11T03:42:11;100268.78;;;9.25;92.53
24486;BME280;13449;49.374;8.584;2023-05-11T03:44:40;100276.66;;;9.25;92.69
24486;BME280;13449;49.374;8.584;2023-05-11T03:47:08;100279.28;;;9.25;92.66
24486;BME280;13449;49.374;8.584;2023-05-11T03:49:36;100274.03;;;9.25;92.92
24486;BME280;13449;49.374;8.584;2023-05-11T03:52:04;100279.41;;;9.24;92.97
24486;BME280;13449;49.374;8.584;2023-05-11T03:54:31;100276.91;;;9.22;92.93
24486;BME280;13449;49.374;8.584;2023-05-11T03:57:00;100277.00;;;9.21;92.94
24486;BME280;13449;49.374;8.584;2023-05-11T03:59:30;100276.28;;;9.19;93.08
24486;BME280;13449;49.374;8.584;2023-05-11T04:01:56;100266.94;;;9.15;93.12
24486;BME280;13449;49.374;8.584;2023-05-11T04:04:27;100277.00;;;9.21;93.42
24486;BME280;13449;49.374;8.584;2023-05-11T04:06:56;100276.44;;;9.28;93.20
24486;BME280;13449;49.374;8.584;2023-05-11T04:09:22;100275.47;;;9.29;93.41
24486;BME280;13449;49.374;8.584;2023-05-11T04:11:49;100276.22;;;9.32;93.26
24486;BME280;13449;49.374;8.584;2023-05-11T04:14:16;100275.47;;;9.29;93.43
24486;BME280;13449;49.374;8.584;2023-05-11T04:16:43;100271.91;;;9.30;92.92
24486;BME280;13449;49.374;8.584;2023-05-11T04:19:09;100271.91;;;9.30;93.20
24486;BME280;13449;49.374;8.584;2023-05-11T04:21:36;100280.53;;;9.33;93.10
24486;BME280;13449;49.374;8.584;2023-05-11T04:24:03;100284.00;;;9.33;93.60
24486;BME280;13449;49.374;8.584;2023-05-11T04:26:32;100283.78;;;9.36;93.57
24486;BME280;13449;49.374;8.584;2023-05-11T04:29:01;100282.22;;;9.34;93.46
24486;BME280;13449;49.374;8.584;2023-05-11T04:31:27;100278.38;;;9.38;93.29
24486;BME280;13449;49.374;8.584;2023-05-11T04:33:55;100278.38;;;9.38;93.11
24486;BME280;13449;49.374;8.584;2023-05-11T04:36:22;100279.00;;;9.41;93.18
24486;BME280;13449;49.374;8.584;2023-05-11T04:38:51;100283.19;;;9.44;93.36
24486;BME280;13449;49.374;8.584;2023-05-11T04:41:20;100282.47;;;9.42;93.21
24486;BME280;13449;49.374;8.584;2023-05-11T04:43:47;100293.75;;;9.55;93.51
24486;BME280;13449;49.374;8.584;2023-05-11T04:46:16;100298.31;;;9.64;93.48
24486;BME280;13449;49.374;8.584;2023-05-11T04:48:42;100293.31;;;9.72;92.83
24486;BME280;13449;49.374;8.584;2023-05-11T04:51:09;100286.84;;;9.76;92.58
24486;BME280;13449;49.374;8.584;2023-05-11T04:53:36;100287.81;;;9.75;92.32
24486;BME280;13449;49.374;8.584;2023-05-11T04:56:02;100287.13;;;9.84;91.80
24486;BME280;13449;49.374;8.584;2023-05-11T04:58:29;100286.53;;;9.92;92.17
24486;BME280;13449;49.374;8.584;2023-05-11T05:00:55;100282.00;;;9.94;92.27
24486;BME280;13449;49.374;8.584;2023-05-11T05:03:22;100291.66;;;9.94;91.56
24486;BME280;13449;49.374;8.584;2023-05-11T05:05:51;100288.81;;;9.97;91.50
24486;BME280;13449;49.374;8.584;2023-05-11T05:08:21;100289.28;;;10.02;91.60
24486;BME280;13449;49.374;8.584;2023-05-11T05:10:49;100295.75;;;10.09;91.52
24486;BME280;13449;49.374;8.584;2023-05-11T05:13:18;100300.56;;;10.15;91.64
24486;BME280;13449;49.374;8.584;2023-05-11T05:15:45;100293.63;;;10.14;91.03
24486;BME280;13449;49.374;8.584;2023-05-11T05:18:11;100291.47;;;10.19;91.22
24486;BME280;13449;49.374;8.584;2023-05-11T05:20:38;100298.91;;;10.25;91.07
24486;BME280;13449;49.374;8.584;2023-05-11T05:23:04;100305.63;;;10.29;90.50
24486;BME280;13449;49.374;8.584;2023-05-11T05:25:31;100302.13;;;10.40;90.93
24486;BME280;13449;49.374;8.584;2023-05-11T05:28:00;100307.53;;;10.49;90.28
24486;BME280;13449;49.374;8.584;2023-05-11T05:30:27;100308.22;;;10.52;89.59
24486;BME280;13449;49.374;8.584;2023-05-11T05:32:54;100299.97;;;10.56;89.97
24486;BME280;13449;49.374;8.584;2023-05-11T05:35:21;100307.78;;;10.58;89.07
24486;BME280;13449;49.374;8.584;2023-05-11T05:37:47;100307.88;;;10.67;89.50
24486;BME280;13449;49.374;8.584;2023-05-11T05:40:16;100306.78;;;10.70;88.94
24486;BME280;13449;49.374;8.584;2023-05-11T05:42:43;100320.19;;;10.78;89.28
24486;BME280;13449;49.374;8.584;2023-05-11T05:45:09;100314.41;;;10.84;89.31
24486;BME280;13449;49.374;8.584;2023-05-11T05:47:40;100318.84;;;10.95;88.87
24486;BME280;13449;49.374;8.584;2023-05-11T05:50:07;100318.97;;;10.93;87.77
24486;BME280;13449;49.374;8.584;2023-05-11T05:52:34;100319.88;;;11.03;88.15
24486;BME280;13449;49.374;8.584;2023-05-11T05:55:00;100318.47;;;10.99;86.85
24486;BME280;13449;49.374;8.584;2023-05-11T05:57:27;100317.25;;;11.03;86.85
24486;BME280;13449;49.374;8.584;2023-05-11T05:59:58;100320.13;;;11.12;86.43
24486;BME280;13449;49.374;8.584;2023-05-11T06:02:24;100329.06;;;11.20;87.29
24486;BME280;13449;49.374;8.584;2023-05-11T06:04:53;100323.44;;;11.25;86.24
24486;BME280;13449;49.374;8.584;2023-05-11T06:07:23;100316.56;;;11.33;86.07
24486;BME280;13449;49.374;8.584;2023-05-11T06:09:50;100314.75;;;11.34;85.20
24486;BME280;13449;49.374;8.584;2023-05-11T06:12:16;100322.44;;;11.37;85.43
24486;BME280;13449;49.374;8.584;2023-05-11T06:14:43;100318.56;;;11.41;85.22
24486;BME280;13449;49.374;8.584;2023-05-11T06:17:09;100321.16;;;11.52;85.54
24486;BME280;13449;49.374;8.584;2023-05-11T06:19:36;100320.53;;;11.60;85.41
24486;BME280;13449;49.374;8.584;2023-05-11T06:22:03;100326.13;;;11.66;85.98
24486;BME280;13449;49.374;8.584;2023-05-11T06:24:32;100322.31;;;11.59;84.55
24486;BME280;13449;49.374;8.584;2023-05-11T06:27:01;100322.50;;;11.79;84.77
24486;BME280;13449;49.374;8.584;2023-05-11T06:29:28;100315.97;;;11.83;84.00
24486;BME280;13449;49.374;8.584;2023-05-11T06:31:54;100311.75;;;11.91;83.47
24486;BME280;13449;49.374;8.584;2023-05-11T06:34:24;100311.53;;;12.04;82.89
24486;BME280;13449;49.374;8.584;2023-05-11T06:36:53;100313.22;;;12.05;82.10
24486;BME280;13449;49.374;8.584;2023-05-11T06:39:19;100309.66;;;11.95;82.06
24486;BME280;13449;49.374;8.584;2023-05-11T06:41:46;100302.31;;;11.98;81.19
24486;BME280;13449;49.374;8.584;2023-05-11T06:44:12;100306.00;;;12.07;81.26
24486;BME280;13449;49.374;8.584;2023-05-11T06:46:39;100311.00;;;12.10;82.51
24486;BME280;13449;49.374;8.584;2023-05-11T06:49:08;100300.44;;;12.10;80.89
24486;BME280;13449;49.374;8.584;2023-05-11T06:51:34;100324.91;;;12.33;82.95
24486;BME280;13449;49.374;8.584;2023-05-11T06:54:01;100317.56;;;12.46;82.89
24486;BME280;13449;49.374;8.584;2023-05-11T06:56:30;100308.91;;;12.35;81.53
24486;BME280;13449;49.374;8.584;2023-05-11T06:59:00;100305.03;;;12.39;81.39
24486;BME280;13449;49.374;8.584;2023-05-11T07:01:26;100303.06;;;12.31;80.55
24486;BME280;13449;49.374;8.584;2023-05-11T07:03:54;100308.72;;;12.26;80.21
24486;BME280;13449;49.374;8.584;2023-05-11T07:06:20;100302.47;;;12.27;79.46
24486;BME280;13449;49.374;8.584;2023-05-11T07:08:47;100300.19;;;12.13;79.56
24486;BME280;13449;49.374;8.584;2023-05-11T07:11:14;100308.38;;;12.41;80.61
24486;BME280;13449;49.374;8.584;2023-05-11T07:13:41;100314.28;;;12.54;80.81
24486;BME280;13449;49.374;8.584;2023-05-11T07:16:10;100316.13;;;12.63;80.58
24486;BME280;13449;49.374;8.584;2023-05-11T07:18:37;100307.59;;;12.59;78.97
24486;BME280;13449;49.374;8.584;2023-05-11T07:21:08;100307.09;;;12.66;79.78
24486;BME280;13449;49.374;8.584;2023-05-11T07:23:34;100308.91;;;12.65;79.49
24486;BME280;13449;49.374;8.584;2023-05-11T07:26:01;100312.88;;;12.59;79.45
24486;BME280;13449;49.374;8.584;2023-05-11T07:28:29;100306.78;;;12.59;77.71
24486;BME280;13449;49.374;8.584;2023-05-11T07:30:55;100314.59;;;12.70;79.17
24486;BME280;13449;49.374;8.584;2023-05-11T07:33:22;100309.03;;;12.73;78.79
24486;BME280;13449;49.374;8.584;2023-05-11T07:35:50;100309.41;;;12.59;78.32
24486;BME280;13449;49.374;8.584;2023-05-11T07:38:17;100302.63;;;12.66;77.16
24486;BME280;13449;49.374;8.584;2023-05-11T07:40:43;100298.19;;;12.67;77.21
24486;BME280;13449;49.374;8.584;2023-05-11T07:43:10;100298.03;;;12.68;77.36
24486;BME280;13449;49.374;8.584;2023-05-11T07:45:36;100297.06;;;12.69;76.92
24486;BME280;13449;49.374;8.584;2023-05-11T07:48:03;100302.63;;;12.66;76.78
24486;BME280;13449;49.374;8.584;2023-05-11T07:50:29;100307.91;;;12.66;76.91
24486;BME280;13449;49.374;8.584;2023-05-11T07:52:56;100317.94;;;12.72;79.46
24486;BME280;13449;49.374;8.584;2023-05-11T07:55:25;100318.53;;;12.85;78.84
24486;BME280;13449;49.374;8.584;2023-05-11T07:57:52;100306.84;;;12.78;77.57
24486;BME280;13449;49.374;8.584;2023-05-11T08:00:22;100306.03;;;12.87;77.76
24486;BME280;13449;49.374;8.584;2023-05-11T08:02:48;100305.59;;;12.82;77.54
24486;BME280;13449;49.374;8.584;2023-05-11T08:05:16;100304.97;;;12.59;75.79
24486;BME280;13449;49.374;8.584;2023-05-11T08:07:42;100310.69;;;12.65;77.34
24486;BME280;13449;49.374;8.584;2023-05-11T08:10:10;100309.91;;;12.93;78.19
24486;BME280;13449;49.374;8.584;2023-05-11T08:12:37;100295.41;;;12.78;76.21
24486;BME280;13449;49.374;8.584;2023-05-11T08:15:07;100304.03;;;12.70;76.83
24486;BME280;13449;49.374;8.584;2023-05-11T08:17:36;100302.69;;;12.85;77.27
24486;BME280;13449;49.374;8.584;2023-05-11T08:20:03;100312.16;;;12.98;77.81
24486;BME280;13449;49.374;8.584;2023-05-11T08:22:31;100299.47;;;12.92;75.22
24486;BME280;13449;49.374;8.584;2023-05-11T08:25:00;100310.50;;;13.06;77.83
24486;BME280;13449;49.374;8.584;2023-05-11T08:27:30;100313.16;;;13.16;78.24
24486;BME280;13449;49.374;8.584;2023-05-11T08:29:57;100317.38;;;13.28;78.11
24486;BME280;13449;49.374;8.584;2023-05-11T08:32:23;100308.03;;;13.24;76.07
24486;BME280;13449;49.374;8.584;2023-05-11T08:34:50;100316.41;;;13.48;77.28
24486;BME280;13449;49.374;8.584;2023-05-11T08:37:17;100307.78;;;13.27;74.92
24486;BME280;13449;49.374;8.584;2023-05-11T08:39:44;100308.59;;;13.57;76.13
24486;BME280;13449;49.374;8.584;2023-05-11T08:42:14;100298.56;;;13.70;74.93
24486;BME280;13449;49.374;8.584;2023-05-11T08:44:42;100314.97;;;13.83;76.46
24486;BME280;13449;49.374;8.584;2023-05-11T08:47:10;100292.84;;;13.55;72.98
24486;BME280;13449;49.374;8.584;2023-05-11T08:49:52;100293.56;;;13.47;72.65
24486;BME280;13449;49.374;8.584;2023-05-11T08:52:21;100292.19;;;13.43;72.93
24486;BME280;13449;49.374;8.584;2023-05-11T08:54:47;100304.69;;;13.70;75.11
24486;BME280;13449;49.374;8.584;2023-05-11T08:57:16;100303.84;;;13.89;75.72
24486;BME280;13449;49.374;8.584;2023-05-11T08:59:43;100314.97;;;13.93;75.21
24486;BME280;13449;49.374;8.584;2023-05-11T09:02:18;100311.06;;;13.87;74.72
24486;BME280;13449;49.374;8.584;2023-05-11T09:04:45;100301.88;;;13.91;74.49
24486;BME280;13449;49.374;8.584;2023-05-11T09:07:15;100301.59;;;13.85;73.63
24486;BME280;13449;49.374;8.584;2023-05-11T09:09:42;100314.25;;;14.00;75.89
24486;BME280;13449;49.374;8.584;2023-05-11T09:12:11;100307.72;;;14.04;74.22
24486;BME280;13449;49.374;8.584;2023-05-11T09:14:38;100314.91;;;14.12;75.95
24486;BME280;13449;49.374;8.584;2023-05-11T09:17:04;100314.59;;;14.25;75.10
24486;BME280;13449;49.374;8.584;2023-05-11T09:19:34;100314.00;;;14.31;75.22
24486;BME280;13449;49.374;8.584;2023-05-11T09:22:00;100309.00;;;14.28;74.86
24486;BME280;13449;49.374;8.584;2023-05-11T09:24:29;100308.09;;;14.09;74.10
24486;BME280;13449;49.374;8.584;2023-05-11T09:27:08;100307.94;;;14.21;73.85
24486;BME280;13449;49.374;8.584;2023-05-11T09:29:35;100290.88;;;13.86;71.55
24486;BME280;13449;49.374;8.584;2023-05-11T09:32:01;100305.06;;;14.04;74.33
24486;BME280;13449;49.374;8.584;2023-05-11T09:34:28;100307.13;;;14.11;74.10
24486;BME280;13449;49.374;8.584;2023-05-11T09:36:55;100301.91;;;14.19;73.93
24486;BME280;13449;49.374;8.584;2023-05-11T09:39:39;100308.03;;;14.29;75.33
24486;BME280;13449;49.374;8.584;2023-05-11T09:42:28;100299.88;;;14.13;72.00
24486;BME280;13449;49.374;8.584;2023-05-11T09:44:55;100293.97;;;14.19;71.33
24486;BME280;13449;49.374;8.584;2023-05-11T09:47:21;100308.69;;;14.41;73.00
24486;BME280;13449;49.374;8.584;2023-05-11T09:49:48;100305.09;;;14.32;72.57
24486;BME280;13449;49.374;8.584;2023-05-11T09:52:16;100300.31;;;14.35;71.34
24486;BME280;13449;49.374;8.584;2023-05-11T09:54:49;100298.66;;;14.44;72.01
24486;BME280;13449;49.374;8.584;2023-05-11T09:59:53;100297.22;;;14.13;71.95
24486;BME280;13449;49.374;8.584;2023-05-11T10:02:30;100289.66;;;14.18;70.52
24486;BME280;13449;49.374;8.584;2023-05-11T10:04:58;100294.50;;;14.32;71.86
24486;BME280;13449;49.374;8.584;2023-05-11T10:07:34;100298.06;;;14.50;71.59
24486;BME280;13449;49.374;8.584;2023-05-11T10:10:04;100299.47;;;14.54;70.52
24486;BME280;13449;49.374;8.584;2023-05-11T10:12:33;100280.47;;;14.59;69.29
24486;BME280;13449;49.374;8.584;2023-05-11T10:15:01;100289.38;;;14.58;69.86
24486;BME280;13449;49.374;8.584;2023-05-11T10:17:31;100278.88;;;14.66;67.70
24486;BME280;13449;49.374;8.584;2023-05-11T10:20:03;100287.56;;;14.86;68.69
24486;BME280;13449;49.374;8.584;2023-05-11T10:22:32;100293.19;;;15.01;71.38
24486;BME280;13449;49.374;8.584;2023-05-11T10:24:59;100266.94;;;14.80;66.41
24486;BME280;13449;49.374;8.584;2023-05-11T10:27:27;100263.25;;;14.90;65.98
24486;BME280;13449;49.374;8.584;2023-05-11T10:29:54;100279.78;;;15.02;69.37
24486;BME280;13449;49.374;8.584;2023-05-11T10:32:21;100267.25;;;14.94;66.65
24486;BME280;13449;49.374;8.584;2023-05-11T10:34:48;100273.34;;;15.22;69.40
24486;BME280;13449;49.374;8.584;2023-05-11T10:37:17;100266.44;;;15.12;68.10
24486;BME280;13449;49.374;8.584;2023-05-11T10:39:47;100260.28;;;14.93;66.12
24486;BME280;13449;49.374;8.584;2023-05-11T10:42:30;100263.97;;;14.83;66.66
24486;BME280;13449;49.374;8.584;2023-05-11T11:01:49;100263.41;;;14.89;66.84
24486;BME280;13449;49.374;8.584;2023-05-11T11:04:24;100270.25;;;14.82;68.03
24486;BME280;13449;49.374;8.584;2023-05-11T11:07:04;100260.53;;;15.00;68.01
24486;BME280;13449;49.374;8.584;2023-05-11T11:12:18;100271.66;;;15.21;68.44
24486;BME280;13449;49.374;8.584;2023-05-11T11:15:03;100274.69;;;15.26;70.50
24486;BME280;13449;49.374;8.584;2023-05-11T11:17:34;100258.47;;;15.29;67.08
24486;BME280;13449;49.374;8.584;2023-05-11T11:20:02;100267.78;;;14.98;68.54
24486;BME280;13449;49.374;8.584;2023-05-11T11:25:05;100260.22;;;15.39;67.65
24486;BME280;13449;49.374;8.584;2023-05-11T11:30:24;100244.41;;;15.55;65.97
24486;BME280;13449;49.374;8.584;2023-05-11T11:35:48;100255.66;;;15.49;68.29
24486;BME280;13449;49.374;8.584;2023-05-11T11:38:16;100250.38;;;15.57;67.37
24486;BME280;13449;49.374;8.584;2023-05-11T11:40:45;100246.69;;;15.68;67.20
24486;BME280;13449;49.374;8.584;2023-05-11T11:43:18;100257.75;;;15.81;67.95
24486;BME280;13449;49.374;8.584;2023-05-11T11:56:02;100237.31;;;15.81;67.06
24486;BME280;13449;49.374;8.584;2023-05-11T12:01:22;100237.09;;;16.01;66.45
24486;BME280;13449;49.374;8.584;2023-05-11T12:06:56;100234.19;;;15.86;66.75
24486;BME280;13449;49.374;8.584;2023-05-11T12:09:23;100239.31;;;16.13;66.73
24486;BME280;13449;49.374;8.584;2023-05-11T12:11:51;100227.19;;;16.11;64.22
24486;BME280;13449;49.374;8.584;2023-05-11T12:14:18;100235.91;;;16.29;65.81
24486;BME280;13449;49.374;8.584;2023-05-11T12:17:05;100230.91;;;16.26;66.21
24486;BME280;13449;49.374;8.584;2023-05-11T12:19:44;100209.44;;;16.20;62.35
24486;BME280;13449;49.374;8.584;2023-05-11T12:22:11;100228.59;;;16.31;65.99
24486;BME280;13449;49.374;8.584;2023-05-11T12:24:40;100218.34;;;16.44;63.48
24486;BME280;13449;49.374;8.584;2023-05-11T12:27:06;100209.94;;;16.23;62.73
24486;BME280;13449;49.374;8.584;2023-05-11T12:29:33;100192.50;;;16.12;61.56
24486;BME280;13449;49.374;8.584;2023-05-11T12:32:02;100212.38;;;16.42;62.75
24486;BME280;13449;49.374;8.584;2023-05-11T12:34:31;100212.78;;;16.72;63.58
24486;BME280;13449;49.374;8.584;2023-05-11T12:36:57;100191.44;;;16.47;61.71
24486;BME280;13449;49.374;8.584;2023-05-11T12:39:28;100206.75;;;16.54;63.89
24486;BME280;13449;49.374;8.584;2023-05-11T12:41:57;100197.34;;;16.84;62.61
24486;BME280;13449;49.374;8.584;2023-05-11T12:44:24;100202.03;;;16.90;63.66
24486;BME280;13449;49.374;8.584;2023-05-11T12:46:52;100179.56;;;16.76;58.58
24486;BME280;13449;49.374;8.584;2023-05-11T12:49:20;100197.34;;;16.84;61.73
24486;BME280;13449;49.374;8.584;2023-05-11T12:54:31;100191.91;;;17.26;62.90
24486;BME280;13449;49.374;8.584;2023-05-11T12:57:00;100183.59;;;17.21;62.48
24486;BME280;13449;49.374;8.584;2023-05-11T12:59:34;100169.44;;;17.12;60.83
24486;BME280;13449;49.374;8.584;2023-05-11T13:04:32;100171.28;;;16.95;61.08
24486;BME280;13449;49.374;8.584;2023-05-11T13:06:58;100170.59;;;16.93;61.75
24486;BME280;13449;49.374;8.584;2023-05-11T13:09:26;100171.25;;;17.03;60.33
24486;BME280;13449;49.374;8.584;2023-05-11T13:12:16;100172.19;;;16.62;61.05
24486;BME280;13449;49.374;8.584;2023-05-11T13:14:47;100164.44;;;16.76;62.52
24486;BME280;13449;49.374;8.584;2023-05-11T13:17:31;100160.28;;;16.98;60.47
24486;BME280;13449;49.374;8.584;2023-05-11T13:20:20;100159.28;;;16.83;61.93
24486;BME280;13449;49.374;8.584;2023-05-11T13:22:49;100151.31;;;16.99;60.50
24486;BME280;13449;49.374;8.584;2023-05-11T13:25:18;100158.31;;;16.92;61.60
24486;BME280;13449;49.374;8.584;2023-05-11T13:27:46;100144.44;;;16.64;60.18
24486;BME280;13449;49.374;8.584;2023-05-11T13:30:13;100163.09;;;16.72;64.38
24486;BME280;13449;49.374;8.584;2023-05-11T13:32:39;100156.59;;;16.67;61.94
24486;BME280;13449;49.374;8.584;2023-05-11T13:35:08;100146.63;;;16.69;60.94
24486;BME280;13449;49.374;8.584;2023-05-11T13:37:35;100156.28;;;16.70;62.50
24486;BME280;13449;49.374;8.584;2023-05-11T13:40:02;100162.59;;;16.69;64.49
24486;BME280;13449;49.374;8.584;2023-05-11T13:42:29;100144.56;;;16.38;61.48
24486;BME280;13449;49.374;8.584;2023-05-11T13:44:55;100142.44;;;16.50;61.73
24486;BME280;13449;49.374;8.584;2023-05-11T13:47:22;100147.25;;;16.46;62.67
24486;BME280;13449;49.374;8.584;2023-05-11T13:49:49;100138.75;;;16.35;62.09
24486;BME280;13449;49.374;8.584;2023-05-11T13:52:16;100135.13;;;16.44;62.74
24486;BME280;13449;49.374;8.584;2023-05-11T13:54:42;100125.31;;;16.44;60.40